sensor_id;sensor_type;location;lat;lon;timestamp;pressure;altitude;pressure_sealevel;temperature;humidity
34081;BME280;20358;50.272;19.026;2023-03-04T00:02:33;98322.25;;;-2.63;69.01
34081;BME280;20358;50.272;19.026;2023-03-04T00:05:39;98310.47;;;-2.76;69.05
34081;BME280;20358;50.272;19.026;2023-03-04T00:08:48;98311.91;;;-2.63;68.81
34081;BME280;20358;50.272;19.026;2023-03-04T00:11:54;98300.72;;;-2.63;69.53
34081;BME280;20358;50.272;19.026;2023-03-04T00:15:00;98287.97;;;-2.71;68.46
34081;BME280;20358;50.272;19.026;2023-03-04T00:18:05;98307.75;;;-2.70;68.99
34081;BME280;20358;50.272;19.026;2023-03-04T00:21:11;98300.63;;;-2.60;69.67
34081;BME280;20358;50.272;19.026;2023-03-04T00:24:20;98295.47;;;-2.60;68.70
34081;BME280;20358;50.272;19.026;2023-03-04T00:27:26;98284.91;;;-2.51;68.82
34081;BME280;20358;50.272;19.026;2023-03-04T00:30:33;98286.72;;;-2.55;69.23
34081;BME280;20358;50.272;19.026;2023-03-04T00:33:39;98285.63;;;-2.44;68.35
34081;BME280;20358;50.272;19.026;2023-03-04T00:36:45;98274.66;;;-2.54;69.25
34081;BME280;20358;50.272;19.026;2023-03-04T00:39:55;98280.38;;;-2.78;69.85
34081;BME280;20358;50.272;19.026;2023-03-04T00:43:00;98272.56;;;-2.75;69.66
34081;BME280;20358;50.272;19.026;2023-03-04T00:46:07;98276.88;;;-2.77;69.68
34081;BME280;20358;50.272;19.026;2023-03-04T00:49:13;98256.56;;;-2.92;69.64
34081;BME280;20358;50.272;19.026;2023-03-04T00:52:19;98259.75;;;-2.81;70.07
34081;BME280;20358;50.272;19.026;2023-03-04T00:55:27;98264.50;;;-2.63;69.63
34081;BME280;20358;50.272;19.026;2023-03-04T00:58:33;98235.28;;;-2.65;69.58
34081;BME280;20358;50.272;19.026;2023-03-04T01:01:40;98242.97;;;-2.62;69.21
34081;BME280;20358;50.272;19.026;2023-03-04T01:04:47;98224.22;;;-2.72;69.75
34081;BME280;20358;50.272;19.026;2023-03-04T01:07:52;98183.66;;;-2.68;69.04
34081;BME280;20358;50.272;19.026;2023-03-04T01:11:02;98206.13;;;-2.36;67.83
34081;BME280;20358;50.272;19.026;2023-03-04T01:14:08;98199.19;;;-2.34;68.50
34081;BME280;20358;50.272;19.026;2023-03-04T01:17:14;98208.91;;;-2.44;68.67
34081;BME280;20358;50.272;19.026;2023-03-04T01:20:22;98194.66;;;-2.60;68.46
34081;BME280;20358;50.272;19.026;2023-03-04T01:23:28;98193.53;;;-2.50;68.58
34081;BME280;20358;50.272;19.026;2023-03-04T01:26:36;98180.38;;;-2.41;68.22
34081;BME280;20358;50.272;19.026;2023-03-04T01:29:42;98189.16;;;-2.48;69.17
34081;BME280;20358;50.272;19.026;2023-03-04T01:32:48;98190.75;;;-2.42;68.42
34081;BME280;20358;50.272;19.026;2023-03-04T01:35:54;98180.81;;;-2.58;68.58
34081;BME280;20358;50.272;19.026;2023-03-04T01:39:00;98180.53;;;-2.47;68.84
34081;BME280;20358;50.272;19.026;2023-03-04T01:42:17;98167.81;;;-2.56;69.12
34081;BME280;20358;50.272;19.026;2023-03-04T01:45:25;98164.50;;;-2.61;68.54
34081;BME280;20358;50.272;19.026;2023-03-04T01:48:36;98169.53;;;-2.55;69.03
34081;BME280;20358;50.272;19.026;2023-03-04T01:51:43;98161.38;;;-2.40;68.42
34081;BME280;20358;50.272;19.026;2023-03-04T01:54:54;98164.16;;;-2.47;68.99
34081;BME280;20358;50.272;19.026;2023-03-04T01:58:05;98163.38;;;-2.49;68.89
34081;BME280;20358;50.272;19.026;2023-03-04T02:01:15;98169.28;;;-2.46;68.87
34081;BME280;20358;50.272;19.026;2023-03-04T02:04:23;98165.22;;;-2.55;68.41
34081;BME280;20358;50.272;19.026;2023-03-04T02:07:33;98145.72;;;-2.68;69.01
34081;BME280;20358;50.272;19.026;2023-03-04T02:10:40;97777.94;;;-4.97;68.37
34081;BME280;20358;50.272;19.026;2023-03-04T02:13:51;98155.75;;;-2.54;68.35
34081;BME280;20358;50.272;19.026;2023-03-04T02:16:56;98149.19;;;-2.67;68.25
34081;BME280;20358;50.272;19.026;2023-03-04T02:20:16;98128.56;;;-2.70;68.93
34081;BME280;20358;50.272;19.026;2023-03-04T02:23:35;98138.72;;;-2.64;68.21
34081;BME280;20358;50.272;19.026;2023-03-04T02:26:50;98124.19;;;-2.68;67.71
34081;BME280;20358;50.272;19.026;2023-03-04T02:29:56;98131.69;;;-2.58;68.92
34081;BME280;20358;50.272;19.026;2023-03-04T02:33:03;98121.38;;;-2.59;68.09
34081;BME280;20358;50.272;19.026;2023-03-04T02:36:10;98103.41;;;-2.64;68.14
34081;BME280;20358;50.272;19.026;2023-03-04T02:39:24;98117.56;;;-2.46;68.55
34081;BME280;20358;50.272;19.026;2023-03-04T02:42:37;98111.69;;;-2.51;67.89
34081;BME280;20358;50.272;19.026;2023-03-04T02:45:45;98107.72;;;-2.64;68.63
34081;BME280;20358;50.272;19.026;2023-03-04T02:48:53;98101.91;;;-2.72;68.57
34081;BME280;20358;50.272;19.026;2023-03-04T02:52:02;98086.81;;;-2.55;68.02
34081;BME280;20358;50.272;19.026;2023-03-04T02:55:09;98095.22;;;-2.47;68.15
34081;BME280;20358;50.272;19.026;2023-03-04T02:58:19;98095.41;;;-2.55;68.28
34081;BME280;20358;50.272;19.026;2023-03-04T03:01:27;98083.81;;;-2.72;68.88
34081;BME280;20358;50.272;19.026;2023-03-04T03:04:37;98079.03;;;-2.87;69.30
34081;BME280;20358;50.272;19.026;2023-03-04T03:07:47;98077.28;;;-2.85;68.95
34081;BME280;20358;50.272;19.026;2023-03-04T03:10:53;98092.53;;;-2.76;69.23
34081;BME280;20358;50.272;19.026;2023-03-04T03:14:03;98089.59;;;-2.96;70.43
34081;BME280;20358;50.272;19.026;2023-03-04T03:17:10;98105.16;;;-2.99;70.65
34081;BME280;20358;50.272;19.026;2023-03-04T03:20:17;98099.03;;;-2.95;70.58
34081;BME280;20358;50.272;19.026;2023-03-04T03:23:24;98097.78;;;-2.79;70.48
34081;BME280;20358;50.272;19.026;2023-03-04T03:26:29;98092.66;;;-2.82;69.18
34081;BME280;20358;50.272;19.026;2023-03-04T03:29:38;98095.06;;;-2.75;69.05
34081;BME280;20358;50.272;19.026;2023-03-04T03:32:44;98099.22;;;-2.68;69.01
34081;BME280;20358;50.272;19.026;2023-03-04T03:35:50;98096.34;;;-2.57;69.65
34081;BME280;20358;50.272;19.026;2023-03-04T03:38:56;98099.09;;;-2.63;68.37
34081;BME280;20358;50.272;19.026;2023-03-04T03:42:03;98093.91;;;-2.63;69.30
34081;BME280;20358;50.272;19.026;2023-03-04T03:45:11;98078.66;;;-2.72;68.07
34081;BME280;20358;50.272;19.026;2023-03-04T03:48:18;98088.13;;;-2.73;69.58
34081;BME280;20358;50.272;19.026;2023-03-04T03:51:24;98086.22;;;-2.65;68.57
34081;BME280;20358;50.272;19.026;2023-03-04T03:54:30;98088.88;;;-2.68;68.46
34081;BME280;20358;50.272;19.026;2023-03-04T03:57:35;98085.56;;;-2.74;68.99
34081;BME280;20358;50.272;19.026;2023-03-04T04:00:44;98088.88;;;-2.69;69.03
34081;BME280;20358;50.272;19.026;2023-03-04T04:03:50;98088.94;;;-2.71;69.13
34081;BME280;20358;50.272;19.026;2023-03-04T04:06:57;98083.16;;;-2.80;68.34
34081;BME280;20358;50.272;19.026;2023-03-04T04:10:04;98085.34;;;-2.99;69.10
34081;BME280;20358;50.272;19.026;2023-03-04T04:13:11;98084.91;;;-2.82;69.35
34081;BME280;20358;50.272;19.026;2023-03-04T04:16:20;98087.88;;;-2.97;68.76
34081;BME280;20358;50.272;19.026;2023-03-04T04:19:26;98088.63;;;-2.92;68.76
34081;BME280;20358;50.272;19.026;2023-03-04T04:22:32;98083.63;;;-2.98;69.09
34081;BME280;20358;50.272;19.026;2023-03-04T04:25:39;98086.50;;;-3.10;70.06
34081;BME280;20358;50.272;19.026;2023-03-04T04:28:44;98066.06;;;-3.20;70.81
34081;BME280;20358;50.272;19.026;2023-03-04T04:31:53;98082.97;;;-3.06;69.32
34081;BME280;20358;50.272;19.026;2023-03-04T04:34:58;98076.09;;;-3.07;69.10
34081;BME280;20358;50.272;19.026;2023-03-04T04:38:06;98079.66;;;-3.11;69.50
34081;BME280;20358;50.272;19.026;2023-03-04T04:41:19;98070.63;;;-2.95;70.27
34081;BME280;20358;50.272;19.026;2023-03-04T04:44:26;98075.50;;;-2.83;68.99
34081;BME280;20358;50.272;19.026;2023-03-04T04:47:35;98080.59;;;-2.80;68.30
34081;BME280;20358;50.272;19.026;2023-03-04T04:50:41;98072.19;;;-2.88;68.39
34081;BME280;20358;50.272;19.026;2023-03-04T04:53:48;98072.00;;;-2.82;68.14
34081;BME280;20358;50.272;19.026;2023-03-04T04:56:54;98080.66;;;-2.83;68.73
34081;BME280;20358;50.272;19.026;2023-03-04T04:59:59;98068.88;;;-2.93;67.42
34081;BME280;20358;50.272;19.026;2023-03-04T05:03:08;98067.47;;;-3.06;67.29
34081;BME280;20358;50.272;19.026;2023-03-04T05:06:14;98072.31;;;-2.94;67.96
34081;BME280;20358;50.272;19.026;2023-03-04T05:09:21;98063.75;;;-2.96;68.14
34081;BME280;20358;50.272;19.026;2023-03-04T05:12:27;98066.00;;;-3.17;68.26
34081;BME280;20358;50.272;19.026;2023-03-04T05:15:33;98071.91;;;-3.13;67.82
34081;BME280;20358;50.272;19.026;2023-03-04T05:18:44;98057.41;;;-3.19;68.98
34081;BME280;20358;50.272;19.026;2023-03-04T05:21:50;98056.72;;;-3.25;68.00
34081;BME280;20358;50.272;19.026;2023-03-04T05:24:56;98058.59;;;-3.32;68.89
34081;BME280;20358;50.272;19.026;2023-03-04T05:28:02;98059.91;;;-3.14;68.33
34081;BME280;20358;50.272;19.026;2023-03-04T05:31:13;98064.16;;;-3.11;67.88
34081;BME280;20358;50.272;19.026;2023-03-04T05:34:23;98050.53;;;-3.18;69.38
34081;BME280;20358;50.272;19.026;2023-03-04T05:37:28;98045.34;;;-3.17;68.38
34081;BME280;20358;50.272;19.026;2023-03-04T05:40:35;98048.72;;;-3.14;68.54
34081;BME280;20358;50.272;19.026;2023-03-04T05:43:41;98034.16;;;-3.19;68.63
34081;BME280;20358;50.272;19.026;2023-03-04T05:46:47;98043.63;;;-3.18;69.03
34081;BME280;20358;50.272;19.026;2023-03-04T05:49:55;98044.50;;;-3.19;68.64
34081;BME280;20358;50.272;19.026;2023-03-04T05:53:02;98050.16;;;-3.38;68.40
34081;BME280;20358;50.272;19.026;2023-03-04T05:56:09;98042.38;;;-3.37;69.40
34081;BME280;20358;50.272;19.026;2023-03-04T05:59:17;98037.00;;;-3.28;68.55
34081;BME280;20358;50.272;19.026;2023-03-04T06:02:23;98032.06;;;-3.03;67.77
34081;BME280;20358;50.272;19.026;2023-03-04T06:05:32;98026.66;;;-2.94;67.24
34081;BME280;20358;50.272;19.026;2023-03-04T06:08:37;98033.88;;;-3.06;67.17
34081;BME280;20358;50.272;19.026;2023-03-04T06:11:43;98039.06;;;-3.06;67.27
34081;BME280;20358;50.272;19.026;2023-03-04T06:14:49;98031.75;;;-3.25;68.20
34081;BME280;20358;50.272;19.026;2023-03-04T06:17:55;98029.38;;;-2.98;68.20
34081;BME280;20358;50.272;19.026;2023-03-04T06:21:07;98027.44;;;-2.90;67.04
34081;BME280;20358;50.272;19.026;2023-03-04T06:24:13;98022.91;;;-3.14;68.26
34081;BME280;20358;50.272;19.026;2023-03-04T06:27:19;98023.97;;;-3.23;67.33
34081;BME280;20358;50.272;19.026;2023-03-04T06:30:25;98035.00;;;-3.17;67.61
34081;BME280;20358;50.272;19.026;2023-03-04T06:33:31;98035.88;;;-3.53;68.63
34081;BME280;20358;50.272;19.026;2023-03-04T06:36:40;98048.31;;;-3.33;67.77
34081;BME280;20358;50.272;19.026;2023-03-04T06:39:46;98054.84;;;-3.19;68.38
34081;BME280;20358;50.272;19.026;2023-03-04T06:42:52;98048.47;;;-3.05;66.97
34081;BME280;20358;50.272;19.026;2023-03-04T06:45:57;98049.41;;;-3.08;67.64
34081;BME280;20358;50.272;19.026;2023-03-04T06:49:03;98058.19;;;-3.15;66.91
34081;BME280;20358;50.272;19.026;2023-03-04T06:52:12;98078.06;;;-3.19;67.96
34081;BME280;20358;50.272;19.026;2023-03-04T06:55:19;98080.28;;;-3.39;66.78
34081;BME280;20358;50.272;19.026;2023-03-04T06:58:24;98088.13;;;-3.06;67.36
34081;BME280;20358;50.272;19.026;2023-03-04T07:01:30;98081.56;;;-3.20;66.80
34081;BME280;20358;50.272;19.026;2023-03-04T07:04:37;98082.16;;;-3.08;67.48
34081;BME280;20358;50.272;19.026;2023-03-04T07:07:46;98086.50;;;-3.10;66.19
34081;BME280;20358;50.272;19.026;2023-03-04T07:10:52;98075.44;;;-3.16;67.40
34081;BME280;20358;50.272;19.026;2023-03-04T07:13:58;98092.81;;;-3.22;66.31
34081;BME280;20358;50.272;19.026;2023-03-04T07:17:03;98064.22;;;-3.14;66.95
34081;BME280;20358;50.272;19.026;2023-03-04T07:20:10;98071.06;;;-3.13;65.90
34081;BME280;20358;50.272;19.026;2023-03-04T07:23:19;98079.41;;;-3.02;66.10
34081;BME280;20358;50.272;19.026;2023-03-04T07:26:26;98080.34;;;-3.05;65.90
34081;BME280;20358;50.272;19.026;2023-03-04T07:29:31;98076.50;;;-2.89;65.02
34081;BME280;20358;50.272;19.026;2023-03-04T07:32:37;98092.44;;;-2.73;65.32
34081;BME280;20358;50.272;19.026;2023-03-04T07:35:43;98085.09;;;-2.88;65.41
34081;BME280;20358;50.272;19.026;2023-03-04T07:38:53;98074.03;;;-2.93;65.49
34081;BME280;20358;50.272;19.026;2023-03-04T07:41:58;98092.53;;;-2.76;65.02
34081;BME280;20358;50.272;19.026;2023-03-04T07:45:05;98088.75;;;-2.63;65.19
34081;BME280;20358;50.272;19.026;2023-03-04T07:48:12;98077.09;;;-2.79;64.73
34081;BME280;20358;50.272;19.026;2023-03-04T07:51:20;98091.88;;;-2.84;65.05
34081;BME280;20358;50.272;19.026;2023-03-04T07:54:29;98089.13;;;-2.78;64.59
34081;BME280;20358;50.272;19.026;2023-03-04T07:57:37;98074.16;;;-2.66;64.04
34081;BME280;20358;50.272;19.026;2023-03-04T08:00:43;98080.56;;;-2.46;63.63
34081;BME280;20358;50.272;19.026;2023-03-04T08:03:50;98084.16;;;-2.52;63.58
34081;BME280;20358;50.272;19.026;2023-03-04T08:06:56;98087.38;;;-2.44;63.79
34081;BME280;20358;50.272;19.026;2023-03-04T08:10:06;98084.78;;;-2.44;62.80
34081;BME280;20358;50.272;19.026;2023-03-04T08:13:12;98020.97;;;-3.06;62.69
34081;BME280;20358;50.272;19.026;2023-03-04T08:16:21;98112.59;;;-2.52;62.86
34081;BME280;20358;50.272;19.026;2023-03-04T08:19:28;98105.56;;;-2.47;62.29
34081;BME280;20358;50.272;19.026;2023-03-04T08:22:34;98092.59;;;-2.79;62.78
34081;BME280;20358;50.272;19.026;2023-03-04T08:25:43;98096.44;;;-2.95;62.39
34081;BME280;20358;50.272;19.026;2023-03-04T08:28:51;97994.66;;;-3.56;63.89
34081;BME280;20358;50.272;19.026;2023-03-04T08:31:57;98089.22;;;-2.81;62.95
34081;BME280;20358;50.272;19.026;2023-03-04T08:35:04;98096.69;;;-2.71;63.50
34081;BME280;20358;50.272;19.026;2023-03-04T08:38:10;98086.72;;;-2.52;62.50
34081;BME280;20358;50.272;19.026;2023-03-04T08:41:19;98083.97;;;-2.46;62.16
34081;BME280;20358;50.272;19.026;2023-03-04T08:44:26;98080.50;;;-2.45;62.61
34081;BME280;20358;50.272;19.026;2023-03-04T08:47:32;98066.06;;;-2.52;62.39
34081;BME280;20358;50.272;19.026;2023-03-04T08:50:38;98080.81;;;-2.25;61.75
34081;BME280;20358;50.272;19.026;2023-03-04T08:53:44;98079.88;;;-2.22;61.11
34081;BME280;20358;50.272;19.026;2023-03-04T08:56:53;98085.03;;;-2.21;61.42
34081;BME280;20358;50.272;19.026;2023-03-04T08:59:59;98089.25;;;-2.49;62.36
34081;BME280;20358;50.272;19.026;2023-03-04T09:03:05;98069.50;;;-2.53;62.35
34081;BME280;20358;50.272;19.026;2023-03-04T09:06:14;98075.53;;;-2.53;62.63
34081;BME280;20358;50.272;19.026;2023-03-04T09:09:20;98074.16;;;-2.33;62.30
34081;BME280;20358;50.272;19.026;2023-03-04T09:12:29;98082.59;;;-2.27;62.13
34081;BME280;20358;50.272;19.026;2023-03-04T09:15:35;98075.91;;;-2.34;62.04
34081;BME280;20358;50.272;19.026;2023-03-04T09:18:42;98083.59;;;-2.31;62.77
34081;BME280;20358;50.272;19.026;2023-03-04T09:21:47;98062.47;;;-2.48;63.02
34081;BME280;20358;50.272;19.026;2023-03-04T09:24:54;98080.09;;;-2.30;62.93
34081;BME280;20358;50.272;19.026;2023-03-04T09:28:03;98059.59;;;-2.68;63.30
34081;BME280;20358;50.272;19.026;2023-03-04T09:31:11;98080.13;;;-2.31;63.19
34081;BME280;20358;50.272;19.026;2023-03-04T09:34:17;98072.41;;;-2.33;62.25
34081;BME280;20358;50.272;19.026;2023-03-04T09:37:24;98065.63;;;-2.37;62.96
34081;BME280;20358;50.272;19.026;2023-03-04T09:40:32;98080.50;;;-2.45;63.06
34081;BME280;20358;50.272;19.026;2023-03-04T09:43:49;98084.94;;;-2.50;62.76
34081;BME280;20358;50.272;19.026;2023-03-04T09:47:00;98070.88;;;-2.40;63.25
34081;BME280;20358;50.272;19.026;2023-03-04T09:50:11;98007.25;;;-2.76;63.09
34081;BME280;20358;50.272;19.026;2023-03-04T09:53:21;98075.59;;;-2.23;62.79
34081;BME280;20358;50.272;19.026;2023-03-04T09:56:35;98070.84;;;-2.08;62.55
34081;BME280;20358;50.272;19.026;2023-03-04T09:59:52;98069.94;;;-2.07;62.23
34081;BME280;20358;50.272;19.026;2023-03-04T10:03:18;98061.22;;;-2.03;62.51
34081;BME280;20358;50.272;19.026;2023-03-04T10:06:30;98061.22;;;-2.03;62.55
34081;BME280;20358;50.272;19.026;2023-03-04T10:09:46;97953.06;;;-2.79;62.01
34081;BME280;20358;50.272;19.026;2023-03-04T10:13:00;98064.97;;;-2.13;62.71
34081;BME280;20358;50.272;19.026;2023-03-04T10:16:18;98048.06;;;-1.95;62.87
34081;BME280;20358;50.272;19.026;2023-03-04T10:19:39;98052.28;;;-1.93;62.88
34081;BME280;20358;50.272;19.026;2023-03-04T10:23:04;98034.97;;;-1.91;62.19
34081;BME280;20358;50.272;19.026;2023-03-04T10:26:16;98027.38;;;-1.97;63.22
34081;BME280;20358;50.272;19.026;2023-03-04T10:29:25;98041.84;;;-1.89;62.58
34081;BME280;20358;50.272;19.026;2023-03-04T10:32:33;98030.66;;;-1.90;63.17
34081;BME280;20358;50.272;19.026;2023-03-04T10:35:44;98035.28;;;-2.01;63.42
34081;BME280;20358;50.272;19.026;2023-03-04T10:38:54;98041.00;;;-1.90;63.35
34081;BME280;20358;50.272;19.026;2023-03-04T10:42:06;98034.31;;;-1.97;63.60
34081;BME280;20358;50.272;19.026;2023-03-04T10:45:29;97802.16;;;-3.32;63.46
34081;BME280;20358;50.272;19.026;2023-03-04T10:48:42;98022.84;;;-1.88;63.46
34081;BME280;20358;50.272;19.026;2023-03-04T10:51:52;98017.56;;;-1.85;63.65
34081;BME280;20358;50.272;19.026;2023-03-04T10:55:14;98003.16;;;-1.94;63.98
34081;BME280;20358;50.272;19.026;2023-03-04T10:58:21;97997.25;;;-1.98;63.80
34081;BME280;20358;50.272;19.026;2023-03-04T11:01:28;98000.94;;;-1.78;63.51
34081;BME280;20358;50.272;19.026;2023-03-04T11:04:36;97991.34;;;-1.75;63.80
34081;BME280;20358;50.272;19.026;2023-03-04T11:07:45;97996.78;;;-1.82;64.00
34081;BME280;20358;50.272;19.026;2023-03-04T11:10:58;97996.59;;;-1.76;64.10
34081;BME280;20358;50.272;19.026;2023-03-04T11:14:16;98009.31;;;-1.69;63.79
34081;BME280;20358;50.272;19.026;2023-03-04T11:17:28;97997.69;;;-1.57;63.81
34081;BME280;20358;50.272;19.026;2023-03-04T11:20:50;97995.81;;;-1.52;63.52
34081;BME280;20358;50.272;19.026;2023-03-04T11:24:00;97991.13;;;-1.41;63.51
34081;BME280;20358;50.272;19.026;2023-03-04T11:27:35;97979.31;;;-1.50;64.24
34081;BME280;20358;50.272;19.026;2023-03-04T11:30:50;97980.69;;;-1.38;63.22
34081;BME280;20358;50.272;19.026;2023-03-04T11:34:05;97968.13;;;-1.50;63.60
34081;BME280;20358;50.272;19.026;2023-03-04T11:37:25;97971.22;;;-1.39;63.52
34081;BME280;20358;50.272;19.026;2023-03-04T11:40:41;97957.47;;;-1.41;63.75
34081;BME280;20358;50.272;19.026;2023-03-04T11:43:48;97974.81;;;-1.43;63.60
34081;BME280;20358;50.272;19.026;2023-03-04T11:47:15;97962.94;;;-1.50;64.00
34081;BME280;20358;50.272;19.026;2023-03-04T11:50:48;97953.69;;;-1.31;63.80
34081;BME280;20358;50.272;19.026;2023-03-04T11:54:15;97966.38;;;-1.23;63.31
34081;BME280;20358;50.272;19.026;2023-03-04T11:57:36;97953.53;;;-1.27;63.08
34081;BME280;20358;50.272;19.026;2023-03-04T12:00:56;97957.16;;;-1.32;63.11
34081;BME280;20358;50.272;19.026;2023-03-04T12:04:30;97958.44;;;-1.19;63.55
34081;BME280;20358;50.272;19.026;2023-03-04T12:11:50;97940.59;;;-1.02;63.22
34081;BME280;20358;50.272;19.026;2023-03-04T12:15:17;97934.28;;;-0.95;62.41
34081;BME280;20358;50.272;19.026;2023-03-04T12:18:43;97944.16;;;-1.06;62.88
34081;BME280;20358;50.272;19.026;2023-03-04T12:22:20;97954.66;;;-1.09;62.40
34081;BME280;20358;50.272;19.026;2023-03-04T12:25:42;97945.09;;;-1.07;62.34
34081;BME280;20358;50.272;19.026;2023-03-04T12:29:06;97930.97;;;-1.23;62.67
34081;BME280;20358;50.272;19.026;2023-03-04T12:32:30;97930.75;;;-1.17;62.67
34081;BME280;20358;50.272;19.026;2023-03-04T12:35:51;97921.78;;;-1.07;62.38
34081;BME280;20358;50.272;19.026;2023-03-04T12:39:21;97936.09;;;-0.97;62.59
34081;BME280;20358;50.272;19.026;2023-03-04T12:42:44;97923.63;;;-0.86;62.19
34081;BME280;20358;50.272;19.026;2023-03-04T12:46:21;97923.44;;;-0.81;61.94
34081;BME280;20358;50.272;19.026;2023-03-04T12:50:06;97918.19;;;-0.80;61.56
34081;BME280;20358;50.272;19.026;2023-03-04T12:53:36;97937.16;;;-0.54;61.53
34081;BME280;20358;50.272;19.026;2023-03-04T12:56:52;97923.72;;;-0.66;61.00
34081;BME280;20358;50.272;19.026;2023-03-04T13:00:16;97888.84;;;-0.57;61.50
34081;BME280;20358;50.272;19.026;2023-03-04T13:03:44;97913.84;;;-0.31;60.74
34081;BME280;20358;50.272;19.026;2023-03-04T13:07:10;97899.50;;;-0.18;60.32
34081;BME280;20358;50.272;19.026;2023-03-04T13:10:22;97906.13;;;-0.11;59.78
34081;BME280;20358;50.272;19.026;2023-03-04T13:13:38;97911.03;;;-0.03;59.75
34081;BME280;20358;50.272;19.026;2023-03-04T13:16:48;97891.44;;;-0.12;59.69
34081;BME280;20358;50.272;19.026;2023-03-04T13:20:16;97900.56;;;-0.02;59.72
34081;BME280;20358;50.272;19.026;2023-03-04T13:23:28;97903.84;;;-0.19;59.85
34081;BME280;20358;50.272;19.026;2023-03-04T13:26:34;97883.63;;;-0.11;60.28
34081;BME280;20358;50.272;19.026;2023-03-04T13:29:42;97885.25;;;-0.08;59.48
34081;BME280;20358;50.272;19.026;2023-03-04T13:32:47;97896.59;;;-0.11;59.95
34081;BME280;20358;50.272;19.026;2023-03-04T13:36:01;97889.41;;;-0.04;59.47
34081;BME280;20358;50.272;19.026;2023-03-04T13:39:27;97881.31;;;0.04;60.13
34081;BME280;20358;50.272;19.026;2023-03-04T13:42:40;97885.84;;;0.20;59.47
34081;BME280;20358;50.272;19.026;2023-03-04T13:45:47;97886.50;;;0.25;59.57
34081;BME280;20358;50.272;19.026;2023-03-04T13:49:05;97883.94;;;0.24;59.42
34081;BME280;20358;50.272;19.026;2023-03-04T13:52:44;97877.00;;;0.24;59.26
34081;BME280;20358;50.272;19.026;2023-03-04T13:56:07;97885.00;;;0.20;59.28
34081;BME280;20358;50.272;19.026;2023-03-04T13:59:29;97888.13;;;0.06;59.77
34081;BME280;20358;50.272;19.026;2023-03-04T14:02:39;97886.84;;;0.16;60.34
34081;BME280;20358;50.272;19.026;2023-03-04T14:05:45;97885.56;;;0.26;59.74
34081;BME280;20358;50.272;19.026;2023-03-04T14:08:56;97805.59;;;-0.28;60.41
34081;BME280;20358;50.272;19.026;2023-03-04T14:12:04;97884.75;;;0.26;59.93
34081;BME280;20358;50.272;19.026;2023-03-04T14:15:23;97874.84;;;0.35;59.91
34081;BME280;20358;50.272;19.026;2023-03-04T14:18:31;97863.00;;;0.28;60.40
34081;BME280;20358;50.272;19.026;2023-03-04T14:21:44;97863.34;;;0.21;60.51
34081;BME280;20358;50.272;19.026;2023-03-04T14:25:02;97779.75;;;-0.52;60.82
34081;BME280;20358;50.272;19.026;2023-03-04T14:28:12;97864.97;;;0.02;60.56
34081;BME280;20358;50.272;19.026;2023-03-04T14:31:22;97868.44;;;0.01;60.90
34081;BME280;20358;50.272;19.026;2023-03-04T14:34:34;97851.44;;;0.15;60.81
34081;BME280;20358;50.272;19.026;2023-03-04T14:37:46;97863.91;;;0.27;59.77
34081;BME280;20358;50.272;19.026;2023-03-04T14:41:06;97873.88;;;0.16;60.55
34081;BME280;20358;50.272;19.026;2023-03-04T14:44:25;97863.13;;;0.25;60.40
34081;BME280;20358;50.272;19.026;2023-03-04T14:47:40;97808.09;;;-0.05;59.81
34081;BME280;20358;50.272;19.026;2023-03-04T14:50:51;97833.72;;;0.25;59.78
34081;BME280;20358;50.272;19.026;2023-03-04T14:53:59;97866.00;;;0.39;59.38
34081;BME280;20358;50.272;19.026;2023-03-04T14:57:21;97845.16;;;0.21;59.12
34081;BME280;20358;50.272;19.026;2023-03-04T15:00:32;97855.47;;;0.42;59.15
34081;BME280;20358;50.272;19.026;2023-03-04T15:03:39;97858.34;;;0.56;58.83
34081;BME280;20358;50.272;19.026;2023-03-04T15:06:51;97850.25;;;0.64;58.91
34081;BME280;20358;50.272;19.026;2023-03-04T15:09:59;97865.81;;;0.64;57.81
34081;BME280;20358;50.272;19.026;2023-03-04T15:13:10;97861.47;;;0.65;58.42
34081;BME280;20358;50.272;19.026;2023-03-04T15:16:19;97854.34;;;0.70;58.32
34081;BME280;20358;50.272;19.026;2023-03-04T15:19:28;97850.56;;;0.77;57.45
34081;BME280;20358;50.272;19.026;2023-03-04T15:22:35;97836.38;;;0.84;57.38
34081;BME280;20358;50.272;19.026;2023-03-04T15:26:02;97851.41;;;0.77;56.85
34081;BME280;20358;50.272;19.026;2023-03-04T15:29:16;97846.47;;;0.71;56.38
34081;BME280;20358;50.272;19.026;2023-03-04T15:32:25;97836.25;;;0.67;55.58
34081;BME280;20358;50.272;19.026;2023-03-04T15:35:32;97846.38;;;0.52;56.24
34081;BME280;20358;50.272;19.026;2023-03-04T15:38:39;97835.69;;;0.40;56.39
34081;BME280;20358;50.272;19.026;2023-03-04T15:41:48;97848.63;;;0.41;56.17
34081;BME280;20358;50.272;19.026;2023-03-04T15:44:58;97852.03;;;0.22;57.66
34081;BME280;20358;50.272;19.026;2023-03-04T15:48:04;97830.03;;;0.30;56.95
34081;BME280;20358;50.272;19.026;2023-03-04T15:51:14;97839.00;;;0.23;57.17
34081;BME280;20358;50.272;19.026;2023-03-04T15:54:25;97836.75;;;0.14;57.11
34081;BME280;20358;50.272;19.026;2023-03-04T15:57:34;97858.97;;;0.21;58.04
34081;BME280;20358;50.272;19.026;2023-03-04T16:00:43;97847.66;;;0.22;57.23
34081;BME280;20358;50.272;19.026;2023-03-04T16:03:50;97842.34;;;0.25;57.29
34081;BME280;20358;50.272;19.026;2023-03-04T16:06:56;97848.97;;;0.32;57.11
34081;BME280;20358;50.272;19.026;2023-03-04T16:10:07;97850.56;;;0.36;56.96
34081;BME280;20358;50.272;19.026;2023-03-04T16:13:25;97835.56;;;0.43;57.79
34081;BME280;20358;50.272;19.026;2023-03-04T16:16:34;97846.03;;;0.41;56.75
34081;BME280;20358;50.272;19.026;2023-03-04T16:19:41;97800.59;;;0.10;57.12
34081;BME280;20358;50.272;19.026;2023-03-04T16:22:51;97850.69;;;0.33;57.43
34081;BME280;20358;50.272;19.026;2023-03-04T16:26:01;97850.41;;;0.39;57.54
34081;BME280;20358;50.272;19.026;2023-03-04T16:29:11;97842.78;;;0.36;57.20
34081;BME280;20358;50.272;19.026;2023-03-04T16:32:19;97845.28;;;0.38;56.79
34081;BME280;20358;50.272;19.026;2023-03-04T16:35:27;97844.50;;;0.36;57.49
34081;BME280;20358;50.272;19.026;2023-03-04T16:38:33;97844.03;;;0.26;57.52
34081;BME280;20358;50.272;19.026;2023-03-04T16:41:39;97840.94;;;0.18;57.07
34081;BME280;20358;50.272;19.026;2023-03-04T16:44:45;97858.06;;;0.22;57.27